sensor_id;sensor_type;location;lat;lon;timestamp;P1;P2;P0
77320;PMS7003;66382;52.252;8.780;2023-07-31T00:00:45;5.67;5.67;4.00
77320;PMS7003;66382;52.252;8.780;2023-07-31T00:03:10;2.67;2.67;2.33
77320;PMS7003;66382;52.252;8.780;2023-07-31T00:05:36;4.00;4.00;4.00
77320;PMS7003;66382;52.252;8.780;2023-07-31T00:08:03;4.00;4.00;3.00
77320;PMS7003;66382;52.252;8.780;2023-07-31T00:10:29;3.00;3.00;3.00
77320;PMS7003;66382;52.252;8.780;2023-07-31T00:12:55;2.67;2.67;2.33
77320;PMS7003;66382;52.252;8.780;2023-07-31T00:15:20;3.00;3.00;2.67
77320;PMS7003;66382;52.252;8.780;2023-07-31T00:17:46;4.67;4.67;3.00
77320;PMS7003;66382;52.252;8.780;2023-07-31T00:20:12;3.33;3.33;3.00
77320;PMS7003;66382;52.252;8.780;2023-07-31T00:22:37;2.00;2.00;2.00
77320;PMS7003;66382;52.252;8.780;2023-07-31T00:25:05;1.00;1.00;0.00
77320;PMS7003;66382;52.252;8.780;2023-07-31T00:27:30;2.00;2.00;2.00
77320;PMS7003;66382;52.252;8.780;2023-07-31T00:29:56;1.00;1.00;1.00
77320;PMS7003;66382;52.252;8.780;2023-07-31T00:32:22;1.67;1.67;1.00
77320;PMS7003;66382;52.252;8.780;2023-07-31T00:34:48;1.33;1.33;1.00
77320;PMS7003;66382;52.252;8.780;2023-07-31T00:37:14;1.33;1.33;1.00
77320;PMS7003;66382;52.252;8.780;2023-07-31T00:39:39;1.00;1.00;1.00
77320;PMS7003;66382;52.252;8.780;2023-07-31T00:42:07;1.00;1.00;1.00
77320;PMS7003;66382;52.252;8.780;2023-07-31T00:44:32;1.50;1.50;1.50
77320;PMS7003;66382;52.252;8.780;2023-07-31T00:46:58;0.00;0.00;0.00
77320;PMS7003;66382;52.252;8.780;2023-07-31T00:49:25;1.00;1.00;1.00
77320;PMS7003;66382;52.252;8.780;2023-07-31T00:51:51;1.75;1.75;1.00
77320;PMS7003;66382;52.252;8.780;2023-07-31T00:54:17;1.00;1.00;1.00
77320;PMS7003;66382;52.252;8.780;2023-07-31T00:56:44;1.25;1.25;1.00
77320;PMS7003;66382;52.252;8.780;2023-07-31T00:59:12;1.00;1.00;1.00
77320;PMS7003;66382;52.252;8.780;2023-07-31T01:01:38;1.75;1.75;1.50
77320;PMS7003;66382;52.252;8.780;2023-07-31T01:04:04;2.00;2.00;2.00
77320;PMS7003;66382;52.252;8.780;2023-07-31T01:06:31;1.00;1.00;1.00
77320;PMS7003;66382;52.252;8.780;2023-07-31T01:09:02;1.00;1.00;1.00
77320;PMS7003;66382;52.252;8.780;2023-07-31T01:11:33;1.00;1.00;1.00
77320;PMS7003;66382;52.252;8.780;2023-07-31T01:14:03;2.00;2.00;2.00
77320;PMS7003;66382;52.252;8.780;2023-07-31T01:16:31;1.00;1.00;1.00
77320;PMS7003;66382;52.252;8.780;2023-07-31T01:18:56;1.00;1.00;1.00
77320;PMS7003;66382;52.252;8.780;2023-07-31T01:21:26;0.00;0.00;0.00
77320;PMS7003;66382;52.252;8.780;2023-07-31T01:26:48;1.00;1.00;1.00
77320;PMS7003;66382;52.252;8.780;2023-07-31T01:29:21;1.00;1.00;1.00
77320;PMS7003;66382;52.252;8.780;2023-07-31T01:31:53;1.00;1.00;1.00
77320;PMS7003;66382;52.252;8.780;2023-07-31T01:34:21;2.00;2.00;2.00
77320;PMS7003;66382;52.252;8.780;2023-07-31T01:36:47;1.67;1.67;1.00
77320;PMS7003;66382;52.252;8.780;2023-07-31T01:39:13;2.00;2.00;1.00
77320;PMS7003;66382;52.252;8.780;2023-07-31T01:41:39;1.67;1.67;1.67
77320;PMS7003;66382;52.252;8.780;2023-07-31T01:44:06;2.67;2.67;2.67
77320;PMS7003;66382;52.252;8.780;2023-07-31T01:46:32;3.00;3.00;3.00
77320;PMS7003;66382;52.252;8.780;2023-07-31T01:48:58;3.00;3.00;2.00
77320;PMS7003;66382;52.252;8.780;2023-07-31T01:51:23;4.00;4.00;3.00
77320;PMS7003;66382;52.252;8.780;2023-07-31T01:53:49;3.67;3.67;3.33
77320;PMS7003;66382;52.252;8.780;2023-07-31T01:56:15;3.00;3.00;2.00
77320;PMS7003;66382;52.252;8.780;2023-07-31T01:58:40;3.00;3.00;3.00
77320;PMS7003;66382;52.252;8.780;2023-07-31T02:01:07;3.33;3.33;3.00
77320;PMS7003;66382;52.252;8.780;2023-07-31T02:03:33;3.25;3.25;3.00
77320;PMS7003;66382;52.252;8.780;2023-07-31T02:05:59;3.67;3.67;3.33
77320;PMS7003;66382;52.252;8.780;2023-07-31T02:08:24;3.00;3.00;3.00
77320;PMS7003;66382;52.252;8.780;2023-07-31T02:10:51;3.00;3.00;3.00
77320;PMS7003;66382;52.252;8.780;2023-07-31T02:13:16;4.00;4.00;3.25
77320;PMS7003;66382;52.252;8.780;2023-07-31T02:15:42;4.33;4.33;3.67
77320;PMS7003;66382;52.252;8.780;2023-07-31T02:18:09;3.67;3.67;3.00
77320;PMS7003;66382;52.252;8.780;2023-07-31T02:20:35;3.25;3.25;3.00
77320;PMS7003;66382;52.252;8.780;2023-07-31T02:23:01;4.00;4.00;3.33
77320;PMS7003;66382;52.252;8.780;2023-07-31T02:25:26;3.33;3.33;3.00
77320;PMS7003;66382;52.252;8.780;2023-07-31T02:27:52;4.00;4.00;3.00
77320;PMS7003;66382;52.252;8.780;2023-07-31T02:30:18;3.00;3.00;3.00
77320;PMS7003;66382;52.252;8.780;2023-07-31T02:32:44;4.33;4.33;4.00
77320;PMS7003;66382;52.252;8.780;2023-07-31T02:35:11;3.00;3.00;2.00
77320;PMS7003;66382;52.252;8.780;2023-07-31T02:37:36;3.00;3.00;2.50
77320;PMS7003;66382;52.252;8.780;2023-07-31T02:40:02;3.00;3.00;2.33
77320;PMS7003;66382;52.252;8.780;2023-07-31T02:42:28;1.25;1.25;1.25
77320;PMS7003;66382;52.252;8.780;2023-07-31T02:44:54;1.00;1.00;1.00
77320;PMS7003;66382;52.252;8.780;2023-07-31T02:47:19;2.00;2.00;2.00
77320;PMS7003;66382;52.252;8.780;2023-07-31T02:49:45;1.00;1.00;0.67
77320;PMS7003;66382;52.252;8.780;2023-07-31T02:52:12;1.00;1.00;1.00
77320;PMS7003;66382;52.252;8.780;2023-07-31T02:54:38;1.00;1.00;1.00
77320;PMS7003;66382;52.252;8.780;2023-07-31T02:57:04;2.00;2.00;1.00
77320;PMS7003;66382;52.252;8.780;2023-07-31T02:59:30;1.00;1.00;1.00
77320;PMS7003;66382;52.252;8.780;2023-07-31T03:01:55;1.00;1.00;1.00
77320;PMS7003;66382;52.252;8.780;2023-07-31T03:04:21;1.00;1.00;1.00
77320;PMS7003;66382;52.252;8.780;2023-07-31T03:06:47;1.00;1.00;1.00
77320;PMS7003;66382;52.252;8.780;2023-07-31T03:09:14;2.00;2.00;1.33
77320;PMS7003;66382;52.252;8.780;2023-07-31T03:11:40;0.25;0.25;0.00
77320;PMS7003;66382;52.252;8.780;2023-07-31T03:14:05;1.00;1.00;1.00
77320;PMS7003;66382;52.252;8.780;2023-07-31T03:16:31;1.00;1.00;1.00
77320;PMS7003;66382;52.252;8.780;2023-07-31T03:18:57;1.00;1.00;0.67
77320;PMS7003;66382;52.252;8.780;2023-07-31T03:21:23;0.00;0.00;0.00
77320;PMS7003;66382;52.252;8.780;2023-07-31T03:23:48;1.00;1.00;1.00
77320;PMS7003;66382;52.252;8.780;2023-07-31T03:26:15;1.33;1.33;0.00
77320;PMS7003;66382;52.252;8.780;2023-07-31T03:28:41;0.25;0.25;0.00
77320;PMS7003;66382;52.252;8.780;2023-07-31T03:31:07;1.00;1.00;1.00
77320;PMS7003;66382;52.252;8.780;2023-07-31T03:33:33;0.00;0.00;0.00
77320;PMS7003;66382;52.252;8.780;2023-07-31T03:35:59;0.00;0.00;0.00
77320;PMS7003;66382;52.252;8.780;2023-07-31T03:38:24;0.00;0.00;0.00
77320;PMS7003;66382;52.252;8.780;2023-07-31T03:40:50;0.00;0.00;0.00
77320;PMS7003;66382;52.252;8.780;2023-07-31T03:43:17;0.00;0.00;0.00
77320;PMS7003;66382;52.252;8.780;2023-07-31T03:45:43;0.00;0.00;0.00
77320;PMS7003;66382;52.252;8.780;2023-07-31T03:48:09;0.00;0.00;0.00
77320;PMS7003;66382;52.252;8.780;2023-07-31T03:50:34;0.00;0.00;0.00
77320;PMS7003;66382;52.252;8.780;2023-07-31T03:53:00;1.00;1.00;0.00
77320;PMS7003;66382;52.252;8.780;2023-07-31T03:55:26;0.00;0.00;0.00
77320;PMS7003;66382;52.252;8.780;2023-07-31T03:57:51;0.00;0.00;0.00
77320;PMS7003;66382;52.252;8.780;2023-07-31T04:00:18;0.00;0.00;0.00
77320;PMS7003;66382;52.252;8.780;2023-07-31T04:02:44;0.00;0.00;0.00
77320;PMS7003;66382;52.252;8.780;2023-07-31T04:05:10;0.00;0.00;0.00
77320;PMS7003;66382;52.252;8.780;2023-07-31T04:07:36;0.00;0.00;0.00
77320;PMS7003;66382;52.252;8.780;2023-07-31T04:10:02;0.00;0.00;0.00
77320;PMS7003;66382;52.252;8.780;2023-07-31T04:12:28;0.50;0.50;0.00
77320;PMS7003;66382;52.252;8.780;2023-07-31T04:14:54;0.00;0.00;0.00
77320;PMS7003;66382;52.252;8.780;2023-07-31T04:17:21;0.67;0.67;0.67
77320;PMS7003;66382;52.252;8.780;2023-07-31T04:19:47;0.00;0.00;0.00
77320;PMS7003;66382;52.252;8.780;2023-07-31T04:22:13;2.00;2.00;2.00
77320;PMS7003;66382;52.252;8.780;2023-07-31T04:24:38;1.00;1.00;1.00
77320;PMS7003;66382;52.252;8.780;2023-07-31T04:27:04;2.00;2.00;1.00
77320;PMS7003;66382;52.252;8.780;2023-07-31T04:29:30;1.00;1.00;1.00
77320;PMS7003;66382;52.252;8.780;2023-07-31T04:31:56;2.00;2.00;2.00
77320;PMS7003;66382;52.252;8.780;2023-07-31T04:34:23;2.00;2.00;1.33
77320;PMS7003;66382;52.252;8.780;2023-07-31T04:36:49;4.00;4.00;2.25
77320;PMS7003;66382;52.252;8.780;2023-07-31T04:39:14;5.67;5.67;4.67
77320;PMS7003;66382;52.252;8.780;2023-07-31T04:41:40;6.67;6.67;5.00
77320;PMS7003;66382;52.252;8.780;2023-07-31T04:44:06;7.33;7.33;6.00
77320;PMS7003;66382;52.252;8.780;2023-07-31T04:46:31;7.33;7.33;5.00
77320;PMS7003;66382;52.252;8.780;2023-07-31T04:48:57;10.67;10.67;8.00
77320;PMS7003;66382;52.252;8.780;2023-07-31T04:51:24;9.67;9.67;8.00
77320;PMS7003;66382;52.252;8.780;2023-07-31T04:53:50;11.00;11.00;8.25
77320;PMS7003;66382;52.252;8.780;2023-07-31T04:56:16;10.33;10.33;7.33
77320;PMS7003;66382;52.252;8.780;2023-07-31T04:58:41;14.33;14.33;11.00
77320;PMS7003;66382;52.252;8.780;2023-07-31T05:01:07;12.33;12.33;9.00
77320;PMS7003;66382;52.252;8.780;2023-07-31T05:03:33;12.67;12.67;10.00
77320;PMS7003;66382;52.252;8.780;2023-07-31T05:05:58;14.00;14.00;10.67
77320;PMS7003;66382;52.252;8.780;2023-07-31T05:08:26;13.33;13.33;9.67
77320;PMS7003;66382;52.252;8.780;2023-07-31T05:10:51;13.25;13.25;10.25
77320;PMS7003;66382;52.252;8.780;2023-07-31T05:13:17;12.00;12.00;9.67
77320;PMS7003;66382;52.252;8.780;2023-07-31T05:15:43;13.00;13.00;9.33
77320;PMS7003;66382;52.252;8.780;2023-07-31T05:18:08;12.00;12.00;10.33
77320;PMS7003;66382;52.252;8.780;2023-07-31T05:20:34;13.67;13.67;11.33
77320;PMS7003;66382;52.252;8.780;2023-07-31T05:23:00;12.33;11.33;8.67
77320;PMS7003;66382;52.252;8.780;2023-07-31T05:25:27;11.33;11.33;9.00
77320;PMS7003;66382;52.252;8.780;2023-07-31T05:27:53;11.25;11.25;9.50
77320;PMS7003;66382;52.252;8.780;2023-07-31T05:30:18;11.67;11.67;8.00
77320;PMS7003;66382;52.252;8.780;2023-07-31T05:32:44;13.33;13.33;10.33
77320;PMS7003;66382;52.252;8.780;2023-07-31T05:35:10;10.33;10.33;8.00
77320;PMS7003;66382;52.252;8.780;2023-07-31T05:37:35;12.00;12.00;9.33
77320;PMS7003;66382;52.252;8.780;2023-07-31T05:40:01;13.33;13.33;10.33
77320;PMS7003;66382;52.252;8.780;2023-07-31T05:42:28;13.50;13.50;9.75
77320;PMS7003;66382;52.252;8.780;2023-07-31T05:44:54;13.50;13.50;10.25
77320;PMS7003;66382;52.252;8.780;2023-07-31T05:47:20;12.00;12.00;10.33
77320;PMS7003;66382;52.252;8.780;2023-07-31T05:49:45;13.00;13.00;11.00
77320;PMS7003;66382;52.252;8.780;2023-07-31T05:52:11;11.00;11.00;8.00
77320;PMS7003;66382;52.252;8.780;2023-07-31T05:54:37;12.00;12.00;10.33
77320;PMS7003;66382;52.252;8.780;2023-07-31T05:57:03;11.33;11.33;9.00
77320;PMS7003;66382;52.252;8.780;2023-07-31T05:59:30;13.00;13.00;10.25
77320;PMS7003;66382;52.252;8.780;2023-07-31T06:01:56;12.25;12.25;9.50
77320;PMS7003;66382;52.252;8.780;2023-07-31T06:04:22;12.00;12.00;9.67
77320;PMS7003;66382;52.252;8.780;2023-07-31T06:06:47;10.67;10.67;9.00
77320;PMS7003;66382;52.252;8.780;2023-07-31T06:09:13;9.67;9.67;8.00
77320;PMS7003;66382;52.252;8.780;2023-07-31T06:11:39;11.33;11.33;9.00
77320;PMS7003;66382;52.252;8.780;2023-07-31T06:14:04;13.33;13.33;9.67
77320;PMS7003;66382;52.252;8.780;2023-07-31T06:16:31;11.00;11.00;7.67
77320;PMS7003;66382;52.252;8.780;2023-07-31T06:18:57;11.25;11.25;8.25
77320;PMS7003;66382;52.252;8.780;2023-07-31T06:21:23;9.67;9.67;7.33
77320;PMS7003;66382;52.252;8.780;2023-07-31T06:23:48;12.00;12.00;8.00
77320;PMS7003;66382;52.252;8.780;2023-07-31T06:26:14;10.67;10.67;7.33
77320;PMS7003;66382;52.252;8.780;2023-07-31T06:28:40;11.00;11.00;8.00
77320;PMS7003;66382;52.252;8.780;2023-07-31T06:31:07;9.00;9.00;7.00
77320;PMS7003;66382;52.252;8.780;2023-07-31T06:33:34;9.33;9.33;6.33
77320;PMS7003;66382;52.252;8.780;2023-07-31T06:35:59;1.00;1.00;0.00
77320;PMS7003;66382;52.252;8.780;2023-07-31T06:38:26;11.00;11.00;9.00
77320;PMS7003;66382;52.252;8.780;2023-07-31T06:40:52;8.25;8.25;7.00
77320;PMS7003;66382;52.252;8.780;2023-07-31T06:43:18;9.25;9.25;5.75
77320;PMS7003;66382;52.252;8.780;2023-07-31T06:45:44;10.00;10.00;7.33
77320;PMS7003;66382;52.252;8.780;2023-07-31T06:48:09;9.00;9.00;7.00
77320;PMS7003;66382;52.252;8.780;2023-07-31T06:50:37;12.00;12.00;6.67
77320;PMS7003;66382;52.252;8.780;2023-07-31T06:53:02;9.50;9.50;7.25
77320;PMS7003;66382;52.252;8.780;2023-07-31T06:55:28;7.33;7.33;6.00
77320;PMS7003;66382;52.252;8.780;2023-07-31T06:57:54;9.00;9.00;7.00
77320;PMS7003;66382;52.252;8.780;2023-07-31T07:00:21;8.50;8.50;6.00
77320;PMS7003;66382;52.252;8.780;2023-07-31T07:02:48;8.75;7.75;6.00
77320;PMS7003;66382;52.252;8.780;2023-07-31T07:05:14;7.75;7.75;6.00
77320;PMS7003;66382;52.252;8.780;2023-07-31T07:07:42;7.00;7.00;5.25
77320;PMS7003;66382;52.252;8.780;2023-07-31T07:10:08;8.75;8.75;7.00
77320;PMS7003;66382;52.252;8.780;2023-07-31T07:12:35;9.50;9.50;7.00
77320;PMS7003;66382;52.252;8.780;2023-07-31T07:15:00;10.00;10.00;7.33
77320;PMS7003;66382;52.252;8.780;2023-07-31T07:17:27;9.00;9.00;7.00
77320;PMS7003;66382;52.252;8.780;2023-07-31T07:19:54;8.00;8.00;7.00
77320;PMS7003;66382;52.252;8.780;2023-07-31T07:22:19;7.00;7.00;5.67
77320;PMS7003;66382;52.252;8.780;2023-07-31T07:24:46;9.00;9.00;5.33
77320;PMS7003;66382;52.252;8.780;2023-07-31T07:27:12;7.25;7.25;5.00
77320;PMS7003;66382;52.252;8.780;2023-07-31T07:29:38;6.33;6.33;5.00
77320;PMS7003;66382;52.252;8.780;2023-07-31T07:32:04;9.00;9.00;6.67
77320;PMS7003;66382;52.252;8.780;2023-07-31T07:34:30;9.25;9.25;7.00
77320;PMS7003;66382;52.252;8.780;2023-07-31T07:36:56;8.33;8.33;5.00
77320;PMS7003;66382;52.252;8.780;2023-07-31T07:39:22;9.00;9.00;6.67
77320;PMS7003;66382;52.252;8.780;2023-07-31T07:41:49;9.33;9.33;6.67
77320;PMS7003;66382;52.252;8.780;2023-07-31T07:44:14;8.25;8.25;5.75
77320;PMS7003;66382;52.252;8.780;2023-07-31T07:46:40;6.33;6.33;5.00
77320;PMS7003;66382;52.252;8.780;2023-07-31T07:49:06;6.67;6.00;5.00
77320;PMS7003;66382;52.252;8.780;2023-07-31T07:51:32;7.00;7.00;6.00
77320;PMS7003;66382;52.252;8.780;2023-07-31T07:53:58;9.25;8.75;6.75
77320;PMS7003;66382;52.252;8.780;2023-07-31T07:56:25;7.25;7.25;5.00
77320;PMS7003;66382;52.252;8.780;2023-07-31T07:58:53;7.00;7.00;5.50
77320;PMS7003;66382;52.252;8.780;2023-07-31T08:01:19;8.25;8.25;6.00
77320;PMS7003;66382;52.252;8.780;2023-07-31T08:03:45;8.75;8.75;6.50
77320;PMS7003;66382;52.252;8.780;2023-07-31T08:06:11;8.00;8.00;6.00
77320;PMS7003;66382;52.252;8.780;2023-07-31T08:08:37;6.33;6.33;6.00
77320;PMS7003;66382;52.252;8.780;2023-07-31T08:11:02;7.33;7.33;6.33
77320;PMS7003;66382;52.252;8.780;2023-07-31T08:13:28;7.00;7.00;6.00
77320;PMS7003;66382;52.252;8.780;2023-07-31T08:15:56;8.50;8.50;7.00
77320;PMS7003;66382;52.252;8.780;2023-07-31T08:18:22;8.75;8.75;6.25
77320;PMS7003;66382;52.252;8.780;2023-07-31T08:20:47;10.50;9.75;8.00
77320;PMS7003;66382;52.252;8.780;2023-07-31T08:23:13;9.33;9.00;7.00
77320;PMS7003;66382;52.252;8.780;2023-07-31T08:25:39;9.00;9.00;8.00
77320;PMS7003;66382;52.252;8.780;2023-07-31T08:28:05;7.00;7.00;6.00
77320;PMS7003;66382;52.252;8.780;2023-07-31T08:30:32;11.50;11.50;8.75
77320;PMS7003;66382;52.252;8.780;2023-07-31T08:32:59;7.75;7.75;7.00
77320;PMS7003;66382;52.252;8.780;2023-07-31T08:35:25;5.50;5.50;4.25
77320;PMS7003;66382;52.252;8.780;2023-07-31T08:37:51;8.25;8.25;6.00
77320;PMS7003;66382;52.252;8.780;2023-07-31T08:40:17;9.33;9.33;8.00
77320;PMS7003;66382;52.252;8.780;2023-07-31T08:42:43;8.33;8.33;6.33
77320;PMS7003;66382;52.252;8.780;2023-07-31T08:45:11;7.00;7.00;6.00
77320;PMS7003;66382;52.252;8.780;2023-07-31T08:47:40;7.50;7.50;6.75
77320;PMS7003;66382;52.252;8.780;2023-07-31T08:50:08;6.25;6.25;5.00
77320;PMS7003;66382;52.252;8.780;2023-07-31T08:52:35;7.50;7.50;6.50
77320;PMS7003;66382;52.252;8.780;2023-07-31T08:55:01;5.67;5.67;5.00
77320;PMS7003;66382;52.252;8.780;2023-07-31T08:57:27;7.33;7.33;5.33
77320;PMS7003;66382;52.252;8.780;2023-07-31T08:59:52;5.33;5.33;5.00
77320;PMS7003;66382;52.252;8.780;2023-07-31T09:02:18;5.00;5.00;4.00
77320;PMS7003;66382;52.252;8.780;2023-07-31T09:04:45;3.50;3.50;2.50
77320;PMS7003;66382;52.252;8.780;2023-07-31T09:07:12;5.00;5.00;4.33
77320;PMS7003;66382;52.252;8.780;2023-07-31T09:09:40;4.00;4.00;3.50
77320;PMS7003;66382;52.252;8.780;2023-07-31T09:12:06;3.00;3.00;3.00
77320;PMS7003;66382;52.252;8.780;2023-07-31T09:14:32;4.25;4.25;4.00
77320;PMS7003;66382;52.252;8.780;2023-07-31T09:16:59;3.50;3.50;3.00
77320;PMS7003;66382;52.252;8.780;2023-07-31T09:19:25;3.00;3.00;3.00
77320;PMS7003;66382;52.252;8.780;2023-07-31T09:21:51;2.25;2.25;2.00
77320;PMS7003;66382;52.252;8.780;2023-07-31T09:24:22;5.00;5.00;4.00
77320;PMS7003;66382;52.252;8.780;2023-07-31T09:26:50;3.25;3.25;3.00
77320;PMS7003;66382;52.252;8.780;2023-07-31T09:29:19;5.50;5.50;4.50
77320;PMS7003;66382;52.252;8.780;2023-07-31T09:31:45;4.33;4.33;4.00
77320;PMS7003;66382;52.252;8.780;2023-07-31T09:34:11;5.00;5.00;3.00
77320;PMS7003;66382;52.252;8.780;2023-07-31T09:36:40;3.75;3.75;3.00
77320;PMS7003;66382;52.252;8.780;2023-07-31T09:39:07;5.00;5.00;4.50
77320;PMS7003;66382;52.252;8.780;2023-07-31T09:41:37;4.00;4.00;3.00
77320;PMS7003;66382;52.252;8.780;2023-07-31T09:44:04;2.50;2.50;2.50
77320;PMS7003;66382;52.252;8.780;2023-07-31T09:46:30;2.33;2.33;2.00
77320;PMS7003;66382;52.252;8.780;2023-07-31T09:49:03;3.00;3.00;2.50
77320;PMS7003;66382;52.252;8.780;2023-07-31T09:51:29;3.25;3.25;2.00
77320;PMS7003;66382;52.252;8.780;2023-07-31T09:53:55;4.33;4.33;3.33
77320;PMS7003;66382;52.252;8.780;2023-07-31T09:56:21;3.00;3.00;3.00
77320;PMS7003;66382;52.252;8.780;2023-07-31T09:58:49;1.75;1.75;1.25
77320;PMS7003;66382;52.252;8.780;2023-07-31T10:01:16;4.00;4.00;3.00
77320;PMS7003;66382;52.252;8.780;2023-07-31T10:03:42;4.00;4.00;3.00
77320;PMS7003;66382;52.252;8.780;2023-07-31T10:06:10;3.50;3.50;3.00
77320;PMS7003;66382;52.252;8.780;2023-07-31T10:08:38;3.00;3.00;2.25
77320;PMS7003;66382;52.252;8.780;2023-07-31T10:11:05;3.33;3.33;3.00
77320;PMS7003;66382;52.252;8.780;2023-07-31T10:13:34;0.25;0.25;0.25
77320;PMS7003;66382;52.252;8.780;2023-07-31T10:16:02;4.00;4.00;3.00
77320;PMS7003;66382;52.252;8.780;2023-07-31T10:18:28;3.25;3.25;3.00
77320;PMS7003;66382;52.252;8.780;2023-07-31T10:20:55;2.75;2.75;1.50
77320;PMS7003;66382;52.252;8.780;2023-07-31T10:23:22;3.00;3.00;2.25
77320;PMS7003;66382;52.252;8.780;2023-07-31T10:25:48;4.00;4.00;3.50
77320;PMS7003;66382;52.252;8.780;2023-07-31T10:28:15;4.00;4.00;3.25
77320;PMS7003;66382;52.252;8.780;2023-07-31T10:30:41;3.50;3.50;3.25
77320;PMS7003;66382;52.252;8.780;2023-07-31T10:33:09;2.00;2.00;2.00
77320;PMS7003;66382;52.252;8.780;2023-07-31T10:35:35;2.75;2.75;2.50
77320;PMS7003;66382;52.252;8.780;2023-07-31T10:38:10;3.00;3.00;2.00
77320;PMS7003;66382;52.252;8.780;2023-07-31T10:40:37;3.00;3.00;2.75
77320;PMS7003;66382;52.252;8.780;2023-07-31T10:43:03;1.25;1.25;1.25
77320;PMS7003;66382;52.252;8.780;2023-07-31T10:45:31;1.40;1.40;1.40
77320;PMS7003;66382;52.252;8.780;2023-07-31T10:47:58;3.00;3.00;2.75
77320;PMS7003;66382;52.252;8.780;2023-07-31T10:50:26;2.00;2.00;2.00
77320;PMS7003;66382;52.252;8.780;2023-07-31T10:52:53;2.00;2.00;2.00
77320;PMS7003;66382;52.252;8.780;2023-07-31T10:55:24;1.25;1.25;1.25
77320;PMS7003;66382;52.252;8.780;2023-07-31T10:57:52;1.50;1.50;1.25
77320;PMS7003;66382;52.252;8.780;2023-07-31T11:00:18;2.00;2.00;2.00
77320;PMS7003;66382;52.252;8.780;2023-07-31T11:02:59;1.25;1.25;1.00
77320;PMS7003;66382;52.252;8.780;2023-07-31T11:05:49;1.00;1.00;1.00
77320;PMS7003;66382;52.252;8.780;2023-07-31T11:08:20;1.00;1.00;1.00
77320;PMS7003;66382;52.252;8.780;2023-07-31T11:10:47;1.00;1.00;1.00
77320;PMS7003;66382;52.252;8.780;2023-07-31T11:13:13;0.00;0.00;0.00
77320;PMS7003;66382;52.252;8.780;2023-07-31T11:15:39;0.00;0.00;0.00
77320;PMS7003;66382;52.252;8.780;2023-07-31T11:18:06;1.00;1.00;0.50
77320;PMS7003;66382;52.252;8.780;2023-07-31T11:20:32;0.80;0.80;0.80
77320;PMS7003;66382;52.252;8.780;2023-07-31T11:23:01;0.60;0.60;0.40
77320;PMS7003;66382;52.252;8.780;2023-07-31T11:25:28;0.60;0.60;0.00
77320;PMS7003;66382;52.252;8.780;2023-07-31T11:27:55;1.00;1.00;0.20
77320;PMS7003;66382;52.252;8.780;2023-07-31T11:30:20;1.25;1.00;0.25
77320;PMS7003;66382;52.252;8.780;2023-07-31T11:32:46;1.33;1.33;1.00
77320;PMS7003;66382;52.252;8.780;2023-07-31T11:35:12;0.00;0.00;0.00
77320;PMS7003;66382;52.252;8.780;2023-07-31T11:37:41;0.25;0.25;0.25
77320;PMS7003;66382;52.252;8.780;2023-07-31T11:40:09;1.00;1.00;1.00
77320;PMS7003;66382;52.252;8.780;2023-07-31T11:42:36;0.00;0.00;0.00
77320;PMS7003;66382;52.252;8.780;2023-07-31T11:45:03;1.00;1.00;1.00
77320;PMS7003;66382;52.252;8.780;2023-07-31T11:47:29;1.00;1.00;1.00
77320;PMS7003;66382;52.252;8.780;2023-07-31T11:49:55;1.00;1.00;1.00
77320;PMS7003;66382;52.252;8.780;2023-07-31T11:52:21;1.00;1.00;0.00
77320;PMS7003;66382;52.252;8.780;2023-07-31T11:54:47;1.00;1.00;1.00
77320;PMS7003;66382;52.252;8.780;2023-07-31T11:57:14;0.25;0.25;0.00
77320;PMS7003;66382;52.252;8.780;2023-07-31T11:59:41;1.00;1.00;1.00
77320;PMS7003;66382;52.252;8.780;2023-07-31T12:02:07;0.60;0.60;0.60
77320;PMS7003;66382;52.252;8.780;2023-07-31T12:04:34;1.00;1.00;1.00
77320;PMS7003;66382;52.252;8.780;2023-07-31T12:07:00;1.00;1.00;1.00
77320;PMS7003;66382;52.252;8.780;2023-07-31T12:09:26;1.00;1.00;1.00
77320;PMS7003;66382;52.252;8.780;2023-07-31T12:11:52;0.25;0.25;0.25
77320;PMS7003;66382;52.252;8.780;2023-07-31T12:14:22;1.00;1.00;1.00
77320;PMS7003;66382;52.252;8.780;2023-07-31T12:16:52;1.00;1.00;1.00
77320;PMS7003;66382;52.252;8.780;2023-07-31T12:19:19;1.00;1.00;1.00
77320;PMS7003;66382;52.252;8.780;2023-07-31T12:21:45;1.00;1.00;0.67
77320;PMS7003;66382;52.252;8.780;2023-07-31T12:24:11;0.67;0.67;0.33
77320;PMS7003;66382;52.252;8.780;2023-07-31T12:26:36;0.25;0.25;0.00
77320;PMS7003;66382;52.252;8.780;2023-07-31T12:29:02;0.00;0.00;0.00
77320;PMS7003;66382;52.252;8.780;2023-07-31T12:31:34;0.25;0.25;0.25
77320;PMS7003;66382;52.252;8.780;2023-07-31T12:33:59;0.00;0.00;0.00
77320;PMS7003;66382;52.252;8.780;2023-07-31T12:36:25;1.00;1.00;1.00
77320;PMS7003;66382;52.252;8.780;2023-07-31T12:38:51;1.00;1.00;1.00
77320;PMS7003;66382;52.252;8.780;2023-07-31T12:41:18;0.00;0.00;0.00
77320;PMS7003;66382;52.252;8.780;2023-07-31T12:43:44;1.00;1.00;1.00
77320;PMS7003;66382;52.252;8.780;2023-07-31T12:46:11;0.60;0.60;0.40
77320;PMS7003;66382;52.252;8.780;2023-07-31T12:48:38;0.20;0.20;0.20
77320;PMS7003;66382;52.252;8.780;2023-07-31T12:51:05;0.00;0.00;0.00
77320;PMS7003;66382;52.252;8.780;2023-07-31T12:53:31;0.00;0.00;0.00
77320;PMS7003;66382;52.252;8.780;2023-07-31T12:55:57;0.00;0.00;0.00
77320;PMS7003;66382;52.252;8.780;2023-07-31T12:58:22;0.00;0.00;0.00
77320;PMS7003;66382;52.252;8.780;2023-07-31T13:00:48;0.00;0.00;0.00
77320;PMS7003;66382;52.252;8.780;2023-07-31T13:03:14;0.00;0.00;0.00
77320;PMS7003;66382;52.252;8.780;2023-07-31T13:05:41;0.00;0.00;0.00
77320;PMS7003;66382;52.252;8.780;2023-07-31T13:08:07;0.20;0.20;0.20
77320;PMS7003;66382;52.252;8.780;2023-07-31T13:10:33;0.00;0.00;0.00
77320;PMS7003;66382;52.252;8.780;2023-07-31T13:12:58;0.75;0.75;0.50
77320;PMS7003;66382;52.252;8.780;2023-07-31T13:15:24;1.00;1.00;1.00
77320;PMS7003;66382;52.252;8.780;2023-07-31T13:17:50;0.50;0.50;0.50
77320;PMS7003;66382;52.252;8.780;2023-07-31T13:20:16;0.00;0.00;0.00
77320;PMS7003;66382;52.252;8.780;2023-07-31T13:22:43;1.00;1.00;1.00
77320;PMS7003;66382;52.252;8.780;2023-07-31T13:25:08;2.00;2.00;1.00
77320;PMS7003;66382;52.252;8.780;2023-07-31T13:27:34;2.00;2.00;2.00
77320;PMS7003;66382;52.252;8.780;2023-07-31T13:30:00;4.00;4.00;2.67
77320;PMS7003;66382;52.252;8.780;2023-07-31T13:32:26;3.67;3.67;3.00
77320;PMS7003;66382;52.252;8.780;2023-07-31T13:34:52;5.67;5.67;4.33
77320;PMS7003;66382;52.252;8.780;2023-07-31T13:37:17;4.00;4.00;3.33
77320;PMS7003;66382;52.252;8.780;2023-07-31T13:39:44;6.00;6.00;5.00
77320;PMS7003;66382;52.252;8.780;2023-07-31T13:42:11;6.50;6.50;4.75
77320;PMS7003;66382;52.252;8.780;2023-07-31T13:44:41;6.25;6.25;4.00
77320;PMS7003;66382;52.252;8.780;2023-07-31T13:47:07;8.00;8.00;6.00
77320;PMS7003;66382;52.252;8.780;2023-07-31T13:49:34;9.25;9.25;7.75
77320;PMS7003;66382;52.252;8.780;2023-07-31T13:52:02;8.75;8.75;6.25
77320;PMS7003;66382;52.252;8.780;2023-07-31T13:54:29;7.50;7.50;6.00
77320;PMS7003;66382;52.252;8.780;2023-07-31T13:56:56;10.33;10.33;7.67
77320;PMS7003;66382;52.252;8.780;2023-07-31T13:59:22;11.25;11.25;9.00
77320;PMS7003;66382;52.252;8.780;2023-07-31T14:01:47;10.00;10.00;8.00
77320;PMS7003;66382;52.252;8.780;2023-07-31T14:04:13;10.00;10.00;8.00
77320;PMS7003;66382;52.252;8.780;2023-07-31T14:06:39;10.33;10.33;7.67
77320;PMS7003;66382;52.252;8.780;2023-07-31T14:09:05;12.33;12.33;9.00
77320;PMS7003;66382;52.252;8.780;2023-07-31T14:11:31;11.00;11.00;9.33
77320;PMS7003;66382;52.252;8.780;2023-07-31T14:13:59;10.00;10.00;8.00
77320;PMS7003;66382;52.252;8.780;2023-07-31T14:16:25;12.25;12.25;10.00